sensor_id;sensor_type;location;lat;lon;timestamp;pressure;altitude;pressure_sealevel;temperature;humidity
9077;BME280;4574;51.072;17.174;2023-03-12T00:01:14;99606.00;;;0.44;100.00
9077;BME280;4574;51.072;17.174;2023-03-12T00:03:43;99603.06;;;0.36;100.00
9077;BME280;4574;51.072;17.174;2023-03-12T00:06:11;99596.19;;;0.35;100.00
9077;BME280;4574;51.072;17.174;2023-03-12T00:08:40;99582.25;;;0.36;100.00
9077;BME280;4574;51.072;17.174;2023-03-12T00:11:10;99600.34;;;0.37;100.00
9077;BME280;4574;51.072;17.174;2023-03-12T00:13:39;99591.81;;;0.35;100.00
9077;BME280;4574;51.072;17.174;2023-03-12T00:16:10;99589.31;;;0.34;100.00
9077;BME280;4574;51.072;17.174;2023-03-12T00:18:41;99592.00;;;0.32;100.00
9077;BME280;4574;51.072;17.174;2023-03-12T00:21:10;99595.75;;;0.28;100.00
9077;BME280;4574;51.072;17.174;2023-03-12T00:23:38;99598.06;;;0.33;100.00
9077;BME280;4574;51.072;17.174;2023-03-12T00:26:11;99585.78;;;0.35;100.00
9077;BME280;4574;51.072;17.174;2023-03-12T00:28:41;99586.72;;;0.34;100.00
9077;BME280;4574;51.072;17.174;2023-03-12T00:31:15;99591.00;;;0.35;100.00
9077;BME280;4574;51.072;17.174;2023-03-12T00:33:46;99590.25;;;0.33;100.00
9077;BME280;4574;51.072;17.174;2023-03-12T00:36:17;99587.84;;;0.30;100.00
9077;BME280;4574;51.072;17.174;2023-03-12T00:38:45;99595.47;;;0.33;100.00
9077;BME280;4574;51.072;17.174;2023-03-12T00:41:14;99602.34;;;0.34;100.00
9077;BME280;4574;51.072;17.174;2023-03-12T00:43:42;99595.66;;;0.30;100.00
9077;BME280;4574;51.072;17.174;2023-03-12T00:46:11;99589.72;;;0.28;100.00
9077;BME280;4574;51.072;17.174;2023-03-12T00:48:39;99597.59;;;0.26;100.00
9077;BME280;4574;51.072;17.174;2023-03-12T00:51:09;99593.78;;;0.32;100.00
9077;BME280;4574;51.072;17.174;2023-03-12T00:53:38;99576.91;;;0.25;100.00
9077;BME280;4574;51.072;17.174;2023-03-12T00:56:07;99599.00;;;0.32;100.00
9077;BME280;4574;51.072;17.174;2023-03-12T00:58:36;99592.84;;;0.33;100.00
9077;BME280;4574;51.072;17.174;2023-03-12T01:01:04;99586.72;;;0.34;100.00
9077;BME280;4574;51.072;17.174;2023-03-12T01:03:33;99595.47;;;0.33;100.00
9077;BME280;4574;51.072;17.174;2023-03-12T01:06:02;99593.69;;;0.33;100.00
9077;BME280;4574;51.072;17.174;2023-03-12T01:08:32;99591.19;;;0.32;100.00
9077;BME280;4574;51.072;17.174;2023-03-12T01:11:00;99590.25;;;0.33;100.00
9077;BME280;4574;51.072;17.174;2023-03-12T01:13:30;99599.34;;;0.40;100.00
9077;BME280;4574;51.072;17.174;2023-03-12T01:15:59;99597.66;;;0.39;100.00
9077;BME280;4574;51.072;17.174;2023-03-12T01:18:28;99600.56;;;0.34;100.00
9077;BME280;4574;51.072;17.174;2023-03-12T01:20:56;99589.06;;;0.24;100.00
9077;BME280;4574;51.072;17.174;2023-03-12T01:23:25;99601.59;;;0.32;100.00
9077;BME280;4574;51.072;17.174;2023-03-12T01:25:55;99602.53;;;0.31;100.00
9077;BME280;4574;51.072;17.174;2023-03-12T01:28:25;99601.59;;;0.32;100.00
9077;BME280;4574;51.072;17.174;2023-03-12T01:30:53;99591.19;;;0.32;100.00
9077;BME280;4574;51.072;17.174;2023-03-12T01:33:22;99584.31;;;0.31;100.00
9077;BME280;4574;51.072;17.174;2023-03-12T01:35:50;99588.59;;;0.32;100.00
9077;BME280;4574;51.072;17.174;2023-03-12T01:38:19;99594.72;;;0.31;100.00
9077;BME280;4574;51.072;17.174;2023-03-12T01:40:48;99587.13;;;0.28;100.00
9077;BME280;4574;51.072;17.174;2023-03-12T01:43:25;99584.59;;;0.26;100.00
9077;BME280;4574;51.072;17.174;2023-03-12T01:46:20;99586.56;;;0.23;100.00
9077;BME280;4574;51.072;17.174;2023-03-12T01:48:53;99590.09;;;0.22;100.00
9077;BME280;4574;51.072;17.174;2023-03-12T01:51:24;99596.13;;;0.22;100.00
9077;BME280;4574;51.072;17.174;2023-03-12T01:53:57;99596.31;;;0.19;100.00
9077;BME280;4574;51.072;17.174;2023-03-12T01:56:29;99605.19;;;0.17;100.00
9077;BME280;4574;51.072;17.174;2023-03-12T01:59:04;99598.84;;;0.21;100.00
9077;BME280;4574;51.072;17.174;2023-03-12T02:01:34;99586.78;;;0.20;100.00
9077;BME280;4574;51.072;17.174;2023-03-12T02:04:03;99597.19;;;0.20;100.00
9077;BME280;4574;51.072;17.174;2023-03-12T02:06:36;99601.72;;;0.16;100.00
9077;BME280;4574;51.072;17.174;2023-03-12T02:09:07;99603.41;;;0.17;100.00
9077;BME280;4574;51.072;17.174;2023-03-12T02:11:35;99597.75;;;0.11;100.00
9077;BME280;4574;51.072;17.174;2023-03-12T02:14:05;99614.47;;;0.21;100.00
9077;BME280;4574;51.072;17.174;2023-03-12T02:16:34;99605.72;;;0.22;100.00
9077;BME280;4574;51.072;17.174;2023-03-12T02:19:09;99610.72;;;0.25;100.00
9077;BME280;4574;51.072;17.174;2023-03-12T02:21:43;99617.59;;;0.26;100.00
9077;BME280;4574;51.072;17.174;2023-03-12T02:24:16;99599.25;;;0.15;100.00
9077;BME280;4574;51.072;17.174;2023-03-12T02:26:47;99606.00;;;0.17;100.00
9077;BME280;4574;51.072;17.174;2023-03-12T02:29:16;99621.34;;;0.22;100.00
9077;BME280;4574;51.072;17.174;2023-03-12T02:31:49;99620.28;;;0.24;100.00
9077;BME280;4574;51.072;17.174;2023-03-12T02:34:19;99616.31;;;0.19;100.00
9077;BME280;4574;51.072;17.174;2023-03-12T02:36:48;99617.81;;;0.23;100.00
9077;BME280;4574;51.072;17.174;2023-03-12T02:39:17;99618.81;;;0.20;100.00
9077;BME280;4574;51.072;17.174;2023-03-12T02:41:50;99621.53;;;0.19;100.00
9077;BME280;4574;51.072;17.174;2023-03-12T02:44:22;99617.25;;;0.18;100.00
9077;BME280;4574;51.072;17.174;2023-03-12T02:46:54;99620.59;;;0.20;100.00
9077;BME280;4574;51.072;17.174;2023-03-12T02:49:24;99617.25;;;0.18;100.00
9077;BME280;4574;51.072;17.174;2023-03-12T02:51:54;99621.06;;;0.12;100.00
9077;BME280;4574;51.072;17.174;2023-03-12T02:54:25;99630.47;;;0.15;100.00
9077;BME280;4574;51.072;17.174;2023-03-12T02:56:55;99626.81;;;0.17;100.00
9077;BME280;4574;51.072;17.174;2023-03-12T02:59:24;99629.34;;;0.19;100.00
9077;BME280;4574;51.072;17.174;2023-03-12T03:01:54;99620.69;;;0.18;100.00
9077;BME280;4574;51.072;17.174;2023-03-12T03:04:31;99621.34;;;0.22;100.00
9077;BME280;4574;51.072;17.174;2023-03-12T03:07:01;99632.47;;;0.24;100.00
9077;BME280;4574;51.072;17.174;2023-03-12T03:09:29;99628.00;;;0.26;100.00
9077;BME280;4574;51.072;17.174;2023-03-12T03:11:59;99636.56;;;0.28;100.00
9077;BME280;4574;51.072;17.174;2023-03-12T03:14:28;99638.22;;;0.29;100.00
9077;BME280;4574;51.072;17.174;2023-03-12T03:16:57;99625.59;;;0.23;100.00
9077;BME280;4574;51.072;17.174;2023-03-12T03:19:26;99646.56;;;0.34;100.00
9077;BME280;4574;51.072;17.174;2023-03-12T03:21:55;99627.16;;;0.25;100.00
9077;BME280;4574;51.072;17.174;2023-03-12T03:24:23;99645.66;;;0.35;100.00
9077;BME280;4574;51.072;17.174;2023-03-12T03:26:52;99655.94;;;0.36;100.00
9077;BME280;4574;51.072;17.174;2023-03-12T03:29:22;99652.78;;;0.31;100.00
9077;BME280;4574;51.072;17.174;2023-03-12T03:31:50;99661.25;;;0.35;100.00
9077;BME280;4574;51.072;17.174;2023-03-12T03:34:19;99663.88;;;0.35;100.00
9077;BME280;4574;51.072;17.174;2023-03-12T03:36:48;99661.25;;;0.35;100.00
9077;BME280;4574;51.072;17.174;2023-03-12T03:39:16;99672.41;;;0.37;100.00
9077;BME280;4574;51.072;17.174;2023-03-12T03:41:46;99671.56;;;0.36;100.00
9077;BME280;4574;51.072;17.174;2023-03-12T03:44:14;99668.41;;;0.31;100.00
9077;BME280;4574;51.072;17.174;2023-03-12T03:46:47;99672.50;;;0.35;100.00
9077;BME280;4574;51.072;17.174;2023-03-12T03:49:16;99666.53;;;0.33;100.00
9077;BME280;4574;51.072;17.174;2023-03-12T03:51:44;99674.28;;;0.35;100.00
9077;BME280;4574;51.072;17.174;2023-03-12T03:54:13;99675.09;;;0.35;100.00
9077;BME280;4574;51.072;17.174;2023-03-12T03:56:42;99669.25;;;0.32;100.00
9077;BME280;4574;51.072;17.174;2023-03-12T03:59:10;99680.41;;;0.34;100.00
9077;BME280;4574;51.072;17.174;2023-03-12T04:01:39;99674.34;;;0.33;100.00
9077;BME280;4574;51.072;17.174;2023-03-12T04:04:09;99678.75;;;0.33;100.00
9077;BME280;4574;51.072;17.174;2023-03-12T04:06:38;99680.59;;;0.31;100.00
9077;BME280;4574;51.072;17.174;2023-03-12T04:09:09;99676.34;;;0.30;100.00
9077;BME280;4574;51.072;17.174;2023-03-12T04:11:38;99681.63;;;0.28;100.00
9077;BME280;4574;51.072;17.174;2023-03-12T04:14:07;99680.81;;;0.28;100.00
9077;BME280;4574;51.072;17.174;2023-03-12T04:16:36;99680.06;;;0.26;100.00
9077;BME280;4574;51.072;17.174;2023-03-12T04:19:04;99675.97;;;0.22;100.00
9077;BME280;4574;51.072;17.174;2023-03-12T04:21:34;99690.47;;;0.26;100.00
9077;BME280;4574;51.072;17.174;2023-03-12T04:24:06;99690.47;;;0.26;100.00
9077;BME280;4574;51.072;17.174;2023-03-12T04:26:35;99698.34;;;0.24;100.00
9077;BME280;4574;51.072;17.174;2023-03-12T04:29:03;99696.50;;;0.26;100.00
9077;BME280;4574;51.072;17.174;2023-03-12T04:31:32;99701.50;;;0.29;100.00
9077;BME280;4574;51.072;17.174;2023-03-12T04:34:04;99701.31;;;0.32;100.00
9077;BME280;4574;51.072;17.174;2023-03-12T04:36:34;99701.31;;;0.32;100.00
9077;BME280;4574;51.072;17.174;2023-03-12T04:39:03;99707.00;;;0.39;100.00
9077;BME280;4574;51.072;17.174;2023-03-12T04:41:34;99717.94;;;0.44;100.00
9077;BME280;4574;51.072;17.174;2023-03-12T04:44:03;99708.28;;;0.46;100.00
9077;BME280;4574;51.072;17.174;2023-03-12T04:46:32;99719.97;;;0.53;100.00
9077;BME280;4574;51.072;17.174;2023-03-12T04:49:01;99715.38;;;0.56;100.00
9077;BME280;4574;51.072;17.174;2023-03-12T04:51:31;99712.03;;;0.54;100.00
9077;BME280;4574;51.072;17.174;2023-03-12T04:54:01;99730.75;;;0.61;100.00
9077;BME280;4574;51.072;17.174;2023-03-12T04:56:29;99720.78;;;0.53;100.00
9077;BME280;4574;51.072;17.174;2023-03-12T04:58:58;99713.91;;;0.52;100.00
9077;BME280;4574;51.072;17.174;2023-03-12T05:01:28;99727.94;;;0.64;100.00
9077;BME280;4574;51.072;17.174;2023-03-12T05:03:57;99723.13;;;0.58;100.00
9077;BME280;4574;51.072;17.174;2023-03-12T05:06:26;99734.09;;;0.63;100.00
9077;BME280;4574;51.072;17.174;2023-03-12T05:08:55;99743.56;;;0.64;100.00
9077;BME280;4574;51.072;17.174;2023-03-12T05:11:25;99738.06;;;0.68;100.00
9077;BME280;4574;51.072;17.174;2023-03-12T05:13:53;99731.47;;;0.63;100.00
9077;BME280;4574;51.072;17.174;2023-03-12T05:16:22;99733.97;;;0.64;100.00
9077;BME280;4574;51.072;17.174;2023-03-12T05:18:50;99743.19;;;0.70;100.00
9077;BME280;4574;51.072;17.174;2023-03-12T05:21:20;99738.91;;;0.69;100.00
9077;BME280;4574;51.072;17.174;2023-03-12T05:23:48;99738.34;;;0.64;100.00
9077;BME280;4574;51.072;17.174;2023-03-12T05:26:19;99746.72;;;0.69;100.00
9077;BME280;4574;51.072;17.174;2023-03-12T05:28:50;99753.69;;;0.68;100.00
9077;BME280;4574;51.072;17.174;2023-03-12T05:31:19;99751.06;;;0.68;100.00
9077;BME280;4574;51.072;17.174;2023-03-12T05:33:48;99756.09;;;0.71;100.00
9077;BME280;4574;51.072;17.174;2023-03-12T05:36:19;99759.44;;;0.73;100.00
9077;BME280;4574;51.072;17.174;2023-03-12T05:38:47;99758.41;;;0.76;100.00
9077;BME280;4574;51.072;17.174;2023-03-12T05:41:18;99752.53;;;0.72;100.00
9077;BME280;4574;51.072;17.174;2023-03-12T05:43:50;99762.88;;;0.74;100.00
9077;BME280;4574;51.072;17.174;2023-03-12T05:46:19;99765.50;;;0.74;100.00
9077;BME280;4574;51.072;17.174;2023-03-12T05:48:48;99762.78;;;0.75;100.00
9077;BME280;4574;51.072;17.174;2023-03-12T05:51:19;99770.50;;;0.77;100.00
9077;BME280;4574;51.072;17.174;2023-03-12T05:53:47;99769.84;;;0.73;100.00
9077;BME280;4574;51.072;17.174;2023-03-12T05:56:16;99773.66;;;0.82;100.00
9077;BME280;4574;51.072;17.174;2023-03-12T05:58:47;99775.13;;;0.86;100.00
9077;BME280;4574;51.072;17.174;2023-03-12T06:01:20;99781.81;;;0.90;100.00
9077;BME280;4574;51.072;17.174;2023-03-12T06:03:49;99790.19;;;0.95;100.00
9077;BME280;4574;51.072;17.174;2023-03-12T06:06:18;99786.56;;;0.97;100.00
9077;BME280;4574;51.072;17.174;2023-03-12T06:08:47;99790.19;;;0.95;100.00
9077;BME280;4574;51.072;17.174;2023-03-12T06:11:16;99795.31;;;0.96;100.00
9077;BME280;4574;51.072;17.174;2023-03-12T06:13:45;99800.00;;;1.04;100.00
9077;BME280;4574;51.072;17.174;2023-03-12T06:16:15;99801.69;;;1.05;100.00
9077;BME280;4574;51.072;17.174;2023-03-12T06:18:46;99809.97;;;1.11;100.00
9077;BME280;4574;51.072;17.174;2023-03-12T06:21:17;99788.47;;;1.08;100.00
9077;BME280;4574;51.072;17.174;2023-03-12T06:23:47;99813.19;;;1.15;100.00
9077;BME280;4574;51.072;17.174;2023-03-12T06:26:17;99813.19;;;1.15;100.00
9077;BME280;4574;51.072;17.174;2023-03-12T06:28:45;99812.22;;;1.29;100.00
9077;BME280;4574;51.072;17.174;2023-03-12T06:31:18;99811.19;;;1.32;100.00
9077;BME280;4574;51.072;17.174;2023-03-12T06:33:49;99817.03;;;1.35;100.00
9077;BME280;4574;51.072;17.174;2023-03-12T06:36:19;99815.06;;;1.39;100.00
9077;BME280;4574;51.072;17.174;2023-03-12T06:38:49;99821.03;;;1.41;100.00
9077;BME280;4574;51.072;17.174;2023-03-12T06:41:18;99812.81;;;1.47;100.00
9077;BME280;4574;51.072;17.174;2023-03-12T06:43:47;99816.03;;;1.50;100.00
9077;BME280;4574;51.072;17.174;2023-03-12T06:46:17;99819.16;;;1.55;100.00
9077;BME280;4574;51.072;17.174;2023-03-12T06:48:49;99831.72;;;1.63;100.00
9077;BME280;4574;51.072;17.174;2023-03-12T06:51:18;99815.25;;;1.75;100.00
9077;BME280;4574;51.072;17.174;2023-03-12T06:53:46;99826.97;;;1.82;100.00
9077;BME280;4574;51.072;17.174;2023-03-12T06:56:15;99842.00;;;1.91;100.00
9077;BME280;4574;51.072;17.174;2023-03-12T06:58:44;99829.16;;;1.88;100.00
9077;BME280;4574;51.072;17.174;2023-03-12T07:01:13;99842.44;;;1.97;100.00
9077;BME280;4574;51.072;17.174;2023-03-12T07:03:41;99844.03;;;2.12;100.00
9077;BME280;4574;51.072;17.174;2023-03-12T07:06:17;99850.19;;;2.11;100.00
9077;BME280;4574;51.072;17.174;2023-03-12T07:08:47;99847.38;;;2.14;100.00
9077;BME280;4574;51.072;17.174;2023-03-12T07:11:16;99847.03;;;2.19;100.00
9077;BME280;4574;51.072;17.174;2023-03-12T07:13:45;99848.50;;;2.23;100.00
9077;BME280;4574;51.072;17.174;2023-03-12T07:16:13;99849.38;;;2.23;100.00
9077;BME280;4574;51.072;17.174;2023-03-12T07:18:42;99854.38;;;2.26;100.00
9077;BME280;4574;51.072;17.174;2023-03-12T07:21:12;99852.50;;;2.28;100.00
9077;BME280;4574;51.072;17.174;2023-03-12T07:23:43;99854.56;;;2.36;100.00
9077;BME280;4574;51.072;17.174;2023-03-12T07:26:12;99862.94;;;2.41;100.00
9077;BME280;4574;51.072;17.174;2023-03-12T07:28:41;99863.22;;;2.49;100.00
9077;BME280;4574;51.072;17.174;2023-03-12T07:31:10;99860.94;;;2.69;100.00
9077;BME280;4574;51.072;17.174;2023-03-12T07:33:38;99865.75;;;2.75;99.73
9077;BME280;4574;51.072;17.174;2023-03-12T07:36:07;99867.19;;;2.79;99.20
9077;BME280;4574;51.072;17.174;2023-03-12T07:38:36;99871.47;;;2.80;99.91
9077;BME280;4574;51.072;17.174;2023-03-12T07:41:07;99877.13;;;2.86;98.76
9077;BME280;4574;51.072;17.174;2023-03-12T07:43:36;99871.06;;;2.86;98.29
9077;BME280;4574;51.072;17.174;2023-03-12T07:46:04;99877.94;;;2.87;99.41
9077;BME280;4574;51.072;17.174;2023-03-12T07:48:33;99870.97;;;2.87;99.03
9077;BME280;4574;51.072;17.174;2023-03-12T07:51:02;99866.56;;;2.88;98.30
9077;BME280;4574;51.072;17.174;2023-03-12T07:53:30;99867.28;;;2.90;98.91
9077;BME280;4574;51.072;17.174;2023-03-12T07:55:59;99878.25;;;2.95;99.83
9077;BME280;4574;51.072;17.174;2023-03-12T07:58:29;99878.97;;;2.97;99.04
9077;BME280;4574;51.072;17.174;2023-03-12T08:00:58;99877.81;;;3.01;98.50
9077;BME280;4574;51.072;17.174;2023-03-12T08:03:27;99877.09;;;2.99;98.75
9077;BME280;4574;51.072;17.174;2023-03-12T08:05:58;99872.06;;;2.96;97.98
9077;BME280;4574;51.072;17.174;2023-03-12T08:08:28;99875.19;;;3.01;98.26
9077;BME280;4574;51.072;17.174;2023-03-12T08:10:57;99873.31;;;3.03;98.13
9077;BME280;4574;51.072;17.174;2023-03-12T08:13:26;99868.22;;;3.01;97.86
9077;BME280;4574;51.072;17.174;2023-03-12T08:15:56;99877.38;;;3.07;97.94
9077;BME280;4574;51.072;17.174;2023-03-12T08:18:26;99881.66;;;3.08;98.14
9077;BME280;4574;51.072;17.174;2023-03-12T08:20:54;99885.59;;;3.26;99.16
9077;BME280;4574;51.072;17.174;2023-03-12T08:23:23;99881.44;;;3.23;99.27
9077;BME280;4574;51.072;17.174;2023-03-12T08:25:53;99885.22;;;3.19;99.06
9077;BME280;4574;51.072;17.174;2023-03-12T08:28:22;99886.88;;;3.20;98.51
9077;BME280;4574;51.072;17.174;2023-03-12T08:30:53;99890.81;;;3.26;98.81
9077;BME280;4574;51.072;17.174;2023-03-12T08:33:23;99889.94;;;3.38;99.57
9077;BME280;4574;51.072;17.174;2023-03-12T08:35:52;99874.09;;;3.28;99.37
9077;BME280;4574;51.072;17.174;2023-03-12T08:38:21;99889.66;;;3.66;99.78
9077;BME280;4574;51.072;17.174;2023-03-12T08:40:54;99896.94;;;3.50;98.10
9077;BME280;4574;51.072;17.174;2023-03-12T08:43:24;99895.16;;;3.50;99.21
9077;BME280;4574;51.072;17.174;2023-03-12T08:45:55;99893.59;;;3.48;98.73
9077;BME280;4574;51.072;17.174;2023-03-12T08:48:27;99896.94;;;3.50;98.46
9077;BME280;4574;51.072;17.174;2023-03-12T08:50:56;99901.00;;;3.54;99.28
9077;BME280;4574;51.072;17.174;2023-03-12T08:53:25;99898.91;;;3.59;98.52
9077;BME280;4574;51.072;17.174;2023-03-12T08:55:55;99901.06;;;3.65;99.55
9077;BME280;4574;51.072;17.174;2023-03-12T08:58:24;99903.69;;;3.65;99.34
9077;BME280;4574;51.072;17.174;2023-03-12T09:00:54;99908.91;;;3.65;99.08
9077;BME280;4574;51.072;17.174;2023-03-12T09:03:23;99914.59;;;3.59;99.89
9077;BME280;4574;51.072;17.174;2023-03-12T09:06:04;99907.03;;;3.67;99.90
9077;BME280;4574;51.072;17.174;2023-03-12T09:08:33;99912.41;;;3.76;99.95
9077;BME280;4574;51.072;17.174;2023-03-12T09:11:01;99899.91;;;3.69;99.57
9077;BME280;4574;51.072;17.174;2023-03-12T09:13:30;99919.50;;;3.87;100.00
9077;BME280;4574;51.072;17.174;2023-03-12T09:16:19;99914.19;;;3.99;100.00
9077;BME280;4574;51.072;17.174;2023-03-12T09:18:48;99900.59;;;3.94;99.16
9077;BME280;4574;51.072;17.174;2023-03-12T09:21:18;99898.00;;;4.05;98.63
9077;BME280;4574;51.072;17.174;2023-03-12T09:23:46;99903.41;;;4.14;99.81
9077;BME280;4574;51.072;17.174;2023-03-12T09:26:15;99903.78;;;4.21;98.38
9077;BME280;4574;51.072;17.174;2023-03-12T09:28:44;99899.16;;;4.24;97.78
9077;BME280;4574;51.072;17.174;2023-03-12T09:31:12;99912.25;;;4.24;97.77
9077;BME280;4574;51.072;17.174;2023-03-12T09:33:41;99906.16;;;4.24;97.07
9077;BME280;4574;51.072;17.174;2023-03-12T09:36:10;99904.63;;;4.21;97.60
9077;BME280;4574;51.072;17.174;2023-03-12T09:38:40;99907.50;;;4.29;96.96
9077;BME280;4574;51.072;17.174;2023-03-12T09:41:17;99905.59;;;4.31;96.45
9077;BME280;4574;51.072;17.174;2023-03-12T09:43:53;99909.69;;;4.46;97.07
9077;BME280;4574;51.072;17.174;2023-03-12T09:46:27;99904.69;;;4.43;96.91
9077;BME280;4574;51.072;17.174;2023-03-12T09:49:02;99928.75;;;4.48;97.64
9077;BME280;4574;51.072;17.174;2023-03-12T09:51:38;99891.97;;;4.50;97.93
9077;BME280;4574;51.072;17.174;2023-03-12T09:54:20;99906.63;;;4.63;96.75
9077;BME280;4574;51.072;17.174;2023-03-12T09:56:51;99904.63;;;4.67;98.21
9077;BME280;4574;51.072;17.174;2023-03-12T09:59:22;99903.06;;;4.64;96.39
9077;BME280;4574;51.072;17.174;2023-03-12T10:01:53;99903.16;;;4.52;96.31
9077;BME280;4574;51.072;17.174;2023-03-12T10:04:37;99911.03;;;4.63;98.01
9077;BME280;4574;51.072;17.174;2023-03-12T10:07:29;99904.22;;;4.49;95.83
9077;BME280;4574;51.072;17.174;2023-03-12T10:10:12;99901.13;;;4.55;95.62
9077;BME280;4574;51.072;17.174;2023-03-12T10:12:58;99890.09;;;4.85;96.61
9077;BME280;4574;51.072;17.174;2023-03-12T10:15:37;99898.06;;;5.27;100.00
9077;BME280;4574;51.072;17.174;2023-03-12T10:18:17;99899.59;;;5.19;93.88
9077;BME280;4574;51.072;17.174;2023-03-12T10:20:52;99900.94;;;5.13;94.18
9077;BME280;4574;51.072;17.174;2023-03-12T10:23:44;99901.53;;;5.17;94.16
9077;BME280;4574;51.072;17.174;2023-03-12T10:26:22;99907.25;;;5.22;95.61
9077;BME280;4574;51.072;17.174;2023-03-12T10:28:56;99912.25;;;5.14;95.82
9077;BME280;4574;51.072;17.174;2023-03-12T10:31:27;99905.44;;;5.00;95.05
9077;BME280;4574;51.072;17.174;2023-03-12T10:34:00;99912.75;;;5.08;96.04
9077;BME280;4574;51.072;17.174;2023-03-12T10:36:35;99904.03;;;5.18;96.29
9077;BME280;4574;51.072;17.174;2023-03-12T10:39:09;99906.63;;;5.40;95.95
9077;BME280;4574;51.072;17.174;2023-03-12T10:41:44;99909.25;;;5.51;95.03
9077;BME280;4574;51.072;17.174;2023-03-12T10:44:17;99906.59;;;5.62;94.17
9077;BME280;4574;51.072;17.174;2023-03-12T10:47:09;99912.88;;;5.70;92.84
9077;BME280;4574;51.072;17.174;2023-03-12T10:49:44;99910.38;;;5.69;92.37
9077;BME280;4574;51.072;17.174;2023-03-12T10:52:17;99914.00;;;5.57;91.03
9077;BME280;4574;51.072;17.174;2023-03-12T10:54:48;99910.19;;;5.50;92.28
9077;BME280;4574;51.072;17.174;2023-03-12T10:57:19;99904.00;;;5.40;92.29
9077;BME280;4574;51.072;17.174;2023-03-12T10:59:48;99895.06;;;5.31;91.96
9077;BME280;4574;51.072;17.174;2023-03-12T11:02:36;99904.34;;;5.46;90.14
9077;BME280;4574;51.072;17.174;2023-03-12T11:05:19;99907.28;;;5.64;90.42
9077;BME280;4574;51.072;17.174;2023-03-12T11:07:49;99896.59;;;5.98;91.16
9077;BME280;4574;51.072;17.174;2023-03-12T11:10:21;99891.81;;;6.24;88.27
9077;BME280;4574;51.072;17.174;2023-03-12T11:13:00;99890.84;;;6.45;89.48
9077;BME280;4574;51.072;17.174;2023-03-12T11:15:37;99899.50;;;6.57;89.00
9077;BME280;4574;51.072;17.174;2023-03-12T11:18:18;99893.53;;;6.75;86.88
9077;BME280;4574;51.072;17.174;2023-03-12T11:20:48;99892.47;;;6.87;83.33
9077;BME280;4574;51.072;17.174;2023-03-12T11:23:22;99888.06;;;6.87;82.51
9077;BME280;4574;51.072;17.174;2023-03-12T11:25:53;99894.38;;;7.15;84.09
9077;BME280;4574;51.072;17.174;2023-03-12T11:28:28;99893.66;;;7.03;79.50
9077;BME280;4574;51.072;17.174;2023-03-12T11:31:00;99897.44;;;7.10;83.38
9077;BME280;4574;51.072;17.174;2023-03-12T11:33:29;99881.22;;;7.05;82.56
9077;BME280;4574;51.072;17.174;2023-03-12T11:36:07;99873.91;;;7.18;82.36
9077;BME280;4574;51.072;17.174;2023-03-12T11:38:45;99871.59;;;7.34;83.94
9077;BME280;4574;51.072;17.174;2023-03-12T11:41:29;99870.03;;;7.22;81.10
9077;BME280;4574;51.072;17.174;2023-03-12T11:44:15;99872.41;;;7.25;81.96
9077;BME280;4574;51.072;17.174;2023-03-12T11:47:12;99868.22;;;7.23;82.44
9077;BME280;4574;51.072;17.174;2023-03-12T11:49:54;99869.28;;;7.01;81.08
9077;BME280;4574;51.072;17.174;2023-03-12T11:52:36;99864.22;;;6.89;82.35
9077;BME280;4574;51.072;17.174;2023-03-12T11:55:26;99856.25;;;7.00;82.73
9077;BME280;4574;51.072;17.174;2023-03-12T11:58:08;99860.97;;;6.96;82.73
9077;BME280;4574;51.072;17.174;2023-03-12T12:00:51;99859.56;;;6.92;79.82
9077;BME280;4574;51.072;17.174;2023-03-12T12:04:19;99857.09;;;7.00;80.72
9077;BME280;4574;51.072;17.174;2023-03-12T12:07:10;99866.13;;;7.07;81.94
9077;BME280;4574;51.072;17.174;2023-03-12T12:09:48;99856.56;;;7.06;82.04
9077;BME280;4574;51.072;17.174;2023-03-12T12:12:33;99857.91;;;7.01;80.90
9077;BME280;4574;51.072;17.174;2023-03-12T12:15:13;99864.66;;;6.84;80.66
9077;BME280;4574;51.072;17.174;2023-03-12T12:17:55;99859.81;;;6.89;82.01
9077;BME280;4574;51.072;17.174;2023-03-12T12:20:32;99857.78;;;7.02;82.93
9077;BME280;4574;51.072;17.174;2023-03-12T12:23:21;99854.31;;;7.02;80.46
9077;BME280;4574;51.072;17.174;2023-03-12T12:26:03;99854.63;;;7.08;80.01
9077;BME280;4574;51.072;17.174;2023-03-12T12:31:39;99844.97;;;7.28;79.34
9077;BME280;4574;51.072;17.174;2023-03-12T12:34:29;99852.47;;;7.32;79.25
9077;BME280;4574;51.072;17.174;2023-03-12T12:37:16;99855.38;;;7.29;77.43
9077;BME280;4574;51.072;17.174;2023-03-12T12:39:49;99842.47;;;7.26;76.58
9077;BME280;4574;51.072;17.174;2023-03-12T12:42:23;99846.66;;;7.38;78.23
9077;BME280;4574;51.072;17.174;2023-03-12T12:44:55;99853.88;;;7.36;77.37
9077;BME280;4574;51.072;17.174;2023-03-12T12:47:33;99831.97;;;7.36;75.81
9077;BME280;4574;51.072;17.174;2023-03-12T12:50:14;99848.34;;;7.39;76.18
9077;BME280;4574;51.072;17.174;2023-03-12T12:52:45;99845.84;;;7.47;77.02
9077;BME280;4574;51.072;17.174;2023-03-12T12:55:22;99844.03;;;7.38;77.32
9077;BME280;4574;51.072;17.174;2023-03-12T12:57:56;99841.81;;;7.43;77.54
9077;BME280;4574;51.072;17.174;2023-03-12T13:00:37;99836.25;;;7.37;78.43
9077;BME280;4574;51.072;17.174;2023-03-12T13:03:12;99834.19;;;7.50;81.17
9077;BME280;4574;51.072;17.174;2023-03-12T13:05:47;99827.53;;;7.46;78.12
9077;BME280;4574;51.072;17.174;2023-03-12T13:11:28;99836.44;;;7.64;80.62
9077;BME280;4574;51.072;17.174;2023-03-12T13:14:33;99843.38;;;7.74;80.71
9077;BME280;4574;51.072;17.174;2023-03-12T13:17:19;99834.50;;;7.75;78.85
9077;BME280;4574;51.072;17.174;2023-03-12T13:19:49;99826.34;;;7.69;77.56
9077;BME280;4574;51.072;17.174;2023-03-12T13:22:40;99833.41;;;7.68;77.15
9077;BME280;4574;51.072;17.174;2023-03-12T13:25:23;99824.81;;;7.76;78.49
9077;BME280;4574;51.072;17.174;2023-03-12T13:27:59;99825.09;;;7.92;79.17
9077;BME280;4574;51.072;17.174;2023-03-12T13:30:48;99814.94;;;8.06;77.27
9077;BME280;4574;51.072;17.174;2023-03-12T13:33:18;99805.94;;;8.18;78.38
9077;BME280;4574;51.072;17.174;2023-03-12T13:36:03;99809.66;;;8.15;78.29
9077;BME280;4574;51.072;17.174;2023-03-12T13:38:53;99809.78;;;8.14;78.41
9077;BME280;4574;51.072;17.174;2023-03-12T13:41:35;99808.84;;;8.05;76.24
9077;BME280;4574;51.072;17.174;2023-03-12T13:44:29;99829.81;;;7.97;77.81
9077;BME280;4574;51.072;17.174;2023-03-12T13:47:01;99823.56;;;7.98;78.67
9077;BME280;4574;51.072;17.174;2023-03-12T13:49:36;99820.63;;;8.11;80.69